Flight Track Log - Related Links

Times and Time Zones

All times are in EDT time to prevent confusion due to time zone crossing. See the CNS22 flight status page for this flight to view local times or setup timezone preferences in your user account.

Time Position Orientation Groundspeed Altitude Reporting Facility
EDT Latitude Longitude Course Direction KTS MPH feet Rate Location/Type
Mon 02:26:24 PM 26.3539 -79.8894 81° East 230 265 3,100  Level Miami Center
Mon 02:27:26 PM 26.3636 -79.8178 81° East 229 264 4,100 683 Climbing Miami Center
Mon 02:28:27 PM 26.3675 -79.7389 87° East 247 284 4,500 656 Climbing Miami Center
Mon 02:29:34 PM 26.3711 -79.6556 87° East 241 277 5,500 947 Climbing Miami Center
Mon 02:30:21 PM 26.3783 -79.6094 80° East 254 292 6,300 1,161 Climbing Miami Center
Mon 02:30:36 PM 26.3767 -79.5861 95° East 221 254 6,700 1,400 Climbing Miami Center
Mon 02:31:21 PM 26.3817 -79.5353 84° East 222 255 7,700 1,257 Climbing Miami Center
Mon 02:32:21 PM 26.3869 -79.4750 84° East 217 250 8,900 1,489 Climbing Miami Center
Mon 02:33:34 PM 26.3883 -79.3939 89° East 202 232 11,000 1,650 Climbing Miami Center
Mon 02:34:21 PM 26.3933 -79.3478 83° East 196 226 12,200 1,234 Climbing Miami Center
Mon 02:35:21 PM 26.3967 -79.2758 87° East 202 232 13,200 963 Climbing Miami Center
Mon 02:35:42 PM 26.3969 -79.2572 89° East 215 247 13,500 800 Climbing Miami Center
Mon 02:36:21 PM 26.4042 -79.2064 81° East 214 246 14,000 885 Climbing Miami Center
Mon 02:36:43 PM 26.4022 -79.1856 96° East 236 272 14,400 1,000 Climbing Miami Center
Mon 02:37:21 PM 26.4053 -79.1322 86° East 225 259 15,000 984 Climbing Miami Center
Mon 02:37:44 PM 26.4056 -79.1114 89° East 238 274 15,400 1,000 Climbing Miami Center
Mon 02:38:21 PM 26.4128 -79.0581 81° East 230 265 16,000 1,065 Climbing Miami Center
Mon 02:38:46 PM 26.4089 -79.0347 101° East 242 278 16,500 1,200 Climbing Miami Center
Mon 02:39:21 PM 26.4097 -78.9814 89° East 235 270 17,200 984 Climbing Miami Center
Mon 02:39:47 PM 26.4142 -78.9608 76° East 241 277 17,500 300 Climbing Miami Center
Mon 02:40:21 PM 26.4192 -78.9050 84° East 240 276 17,500  Level Miami Center
Mon 02:40:54 PM 26.4175 -78.8633 93° East 265 305 17,500  Level Miami Center
Mon 02:41:21 PM 26.4264 -78.8194 77° East 254 292 17,500  Level Miami Center
Mon 02:42:21 PM 26.4319 -78.7289 86° East 276 318 17,500  Level Miami Center
Mon 02:43:21 PM 26.4350 -78.6431 88° East 288 331 17,500  Level Miami Center
Mon 02:44:21 PM 26.4403 -78.5528 86° East 295 339 17,500  Level Miami Center
Mon 02:45:21 PM 26.4433 -78.4600 88° East 295 339 17,500  Level Miami Center
Mon 02:46:21 PM 26.4486 -78.3672 86° East 295 339 17,500  Level Miami Center
Mon 02:47:21 PM 26.4414 -78.2603 94° East 304 350 17,500  Level Miami Center
Mon 02:48:21 PM 26.4189 -78.1836 108° East 289 333 17,500 -250 Level Miami Center
Mon 02:49:21 PM 26.4072 -78.0953 98° East 292 336 17,000 -750 Descending Miami Center
Mon 02:50:21 PM 26.3975 -78.0000 96° East 305 351 16,000 -1,550 Descending Miami Center
Mon 02:51:21 PM 26.3919 -77.9072 94° East 305 351 13,900 -1,850 Descending Miami Center
Mon 02:52:21 PM 26.3967 -77.8167 87° East 297 342 12,300 -1,550 Descending Miami Center
Mon 02:53:21 PM 26.4119 -77.7289 79° East 291 335 10,800 -1,400 Descending Miami Center
Mon 02:54:21 PM 26.4250 -77.6522 79° East 278 320 9,500 -1,300 Descending Miami Center

Login

Don't have an account? Register now (free) for customized features, flight alerts, and more!